sensor_id;sensor_type;location;lat;lon;timestamp;pressure;altitude;pressure_sealevel;temperature
69435;BMP180;56625;54.322;18.582;2022-12-16T00:01:19;100581.40;;;-4.70
69435;BMP180;56625;54.322;18.582;2022-12-16T00:03:51;100586.00;;;-4.70
69435;BMP180;56625;54.322;18.582;2022-12-16T00:06:25;100584.00;;;-4.70
69435;BMP180;56625;54.322;18.582;2022-12-16T00:08:53;100587.40;;;-4.72
69435;BMP180;56625;54.322;18.582;2022-12-16T00:11:21;100575.60;;;-4.80
69435;BMP180;56625;54.322;18.582;2022-12-16T00:13:49;100570.80;;;-4.80
69435;BMP180;56625;54.322;18.582;2022-12-16T00:16:19;100575.40;;;-4.80
69435;BMP180;56625;54.322;18.582;2022-12-16T00:18:48;100578.60;;;-4.80
69435;BMP180;56625;54.322;18.582;2022-12-16T00:21:19;100576.00;;;-4.80
69435;BMP180;56625;54.322;18.582;2022-12-16T00:23:47;100576.20;;;-4.80
69435;BMP180;56625;54.322;18.582;2022-12-16T00:26:15;100572.80;;;-4.80
69435;BMP180;56625;54.322;18.582;2022-12-16T00:28:43;100573.20;;;-4.80
69435;BMP180;56625;54.322;18.582;2022-12-16T00:31:11;100573.00;;;-4.80
69435;BMP180;56625;54.322;18.582;2022-12-16T00:33:40;100580.00;;;-4.70
69435;BMP180;56625;54.322;18.582;2022-12-16T00:36:08;100583.40;;;-4.60
69435;BMP180;56625;54.322;18.582;2022-12-16T00:38:36;100583.20;;;-4.60
69435;BMP180;56625;54.322;18.582;2022-12-16T00:41:05;100581.00;;;-4.60
69435;BMP180;56625;54.322;18.582;2022-12-16T00:43:33;100587.40;;;-4.62
69435;BMP180;56625;54.322;18.582;2022-12-16T00:46:01;100596.00;;;-4.70
69435;BMP180;56625;54.322;18.582;2022-12-16T00:48:29;100591.20;;;-4.70
69435;BMP180;56625;54.322;18.582;2022-12-16T00:50:57;100597.00;;;-4.74
69435;BMP180;56625;54.322;18.582;2022-12-16T00:53:25;100596.60;;;-4.80
69435;BMP180;56625;54.322;18.582;2022-12-16T00:56:05;100600.60;;;-4.80
69435;BMP180;56625;54.322;18.582;2022-12-16T00:58:35;100606.80;;;-4.80
69435;BMP180;56625;54.322;18.582;2022-12-16T01:01:04;100609.00;;;-4.74
69435;BMP180;56625;54.322;18.582;2022-12-16T01:03:33;100603.60;;;-4.80
69435;BMP180;56625;54.322;18.582;2022-12-16T01:06:09;100604.80;;;-4.80
69435;BMP180;56625;54.322;18.582;2022-12-16T01:08:37;100605.60;;;-4.90
69435;BMP180;56625;54.322;18.582;2022-12-16T01:11:05;100614.00;;;-4.90
69435;BMP180;56625;54.322;18.582;2022-12-16T01:13:33;100618.20;;;-4.90
69435;BMP180;56625;54.322;18.582;2022-12-16T01:16:02;100618.60;;;-4.90
69435;BMP180;56625;54.322;18.582;2022-12-16T01:18:30;100617.20;;;-4.90
69435;BMP180;56625;54.322;18.582;2022-12-16T01:21:05;100622.60;;;-4.90
69435;BMP180;56625;54.322;18.582;2022-12-16T01:23:33;100619.60;;;-5.00
69435;BMP180;56625;54.322;18.582;2022-12-16T01:26:02;100626.80;;;-5.00
69435;BMP180;56625;54.322;18.582;2022-12-16T01:28:30;100633.40;;;-5.00
69435;BMP180;56625;54.322;18.582;2022-12-16T01:30:59;100636.60;;;-5.00
69435;BMP180;56625;54.322;18.582;2022-12-16T01:33:32;100640.40;;;-4.90
69435;BMP180;56625;54.322;18.582;2022-12-16T01:36:05;100650.60;;;-4.90
69435;BMP180;56625;54.322;18.582;2022-12-16T01:38:35;100642.60;;;-4.90
69435;BMP180;56625;54.322;18.582;2022-12-16T01:41:04;100635.80;;;-4.90
69435;BMP180;56625;54.322;18.582;2022-12-16T01:43:37;100638.80;;;-4.90
69435;BMP180;56625;54.322;18.582;2022-12-16T01:51:36;100639.80;;;-4.80
69435;BMP180;56625;54.322;18.582;2022-12-16T01:54:16;100640.80;;;-4.78
69435;BMP180;56625;54.322;18.582;2022-12-16T01:57:11;100643.60;;;-4.70
69435;BMP180;56625;54.322;18.582;2022-12-16T01:59:41;100643.40;;;-4.64
69435;BMP180;56625;54.322;18.582;2022-12-16T02:02:12;100645.60;;;-4.60
69435;BMP180;56625;54.322;18.582;2022-12-16T02:04:41;100654.80;;;-4.60
69435;BMP180;56625;54.322;18.582;2022-12-16T02:07:31;100653.00;;;-4.70
69435;BMP180;56625;54.322;18.582;2022-12-16T02:09:59;100664.80;;;-4.70
69435;BMP180;56625;54.322;18.582;2022-12-16T02:15:51;100665.00;;;-4.60
69435;BMP180;56625;54.322;18.582;2022-12-16T02:18:59;100666.40;;;-4.68
69435;BMP180;56625;54.322;18.582;2022-12-16T02:22:16;100656.60;;;-4.70
69435;BMP180;56625;54.322;18.582;2022-12-16T02:28:56;100663.00;;;-4.70
69435;BMP180;56625;54.322;18.582;2022-12-16T02:34:40;100667.00;;;-4.64
69435;BMP180;56625;54.322;18.582;2022-12-16T02:38:21;100658.40;;;-4.60
69435;BMP180;56625;54.322;18.582;2022-12-16T02:40:51;100655.00;;;-4.60
69435;BMP180;56625;54.322;18.582;2022-12-16T02:43:51;100650.80;;;-4.52
69435;BMP180;56625;54.322;18.582;2022-12-16T02:46:26;100650.00;;;-4.50
69435;BMP180;56625;54.322;18.582;2022-12-16T02:48:55;100649.40;;;-4.48
69435;BMP180;56625;54.322;18.582;2022-12-16T02:51:25;100647.00;;;-4.50
69435;BMP180;56625;54.322;18.582;2022-12-16T02:53:54;100647.20;;;-4.50
69435;BMP180;56625;54.322;18.582;2022-12-16T02:59:54;100634.60;;;-4.60
69435;BMP180;56625;54.322;18.582;2022-12-16T03:02:38;100633.40;;;-4.54
69435;BMP180;56625;54.322;18.582;2022-12-16T03:05:17;100628.80;;;-4.54
69435;BMP180;56625;54.322;18.582;2022-12-16T03:07:49;100635.00;;;-4.56
69435;BMP180;56625;54.322;18.582;2022-12-16T03:10:24;100646.20;;;-4.50
69435;BMP180;56625;54.322;18.582;2022-12-16T03:12:55;100643.20;;;-4.40
69435;BMP180;56625;54.322;18.582;2022-12-16T03:15:28;100644.00;;;-4.40
69435;BMP180;56625;54.322;18.582;2022-12-16T03:17:58;100637.60;;;-4.34
69435;BMP180;56625;54.322;18.582;2022-12-16T03:20:36;100641.00;;;-4.30
69435;BMP180;56625;54.322;18.582;2022-12-16T03:23:15;100639.00;;;-4.40
69435;BMP180;56625;54.322;18.582;2022-12-16T03:25:47;100639.00;;;-4.40
69435;BMP180;56625;54.322;18.582;2022-12-16T03:29:01;100640.80;;;-4.40
69435;BMP180;56625;54.322;18.582;2022-12-16T03:32:02;100651.40;;;-4.38
69435;BMP180;56625;54.322;18.582;2022-12-16T03:34:43;100655.60;;;-4.30
69435;BMP180;56625;54.322;18.582;2022-12-16T03:37:14;100653.60;;;-4.30
69435;BMP180;56625;54.322;18.582;2022-12-16T03:39:47;100653.00;;;-4.30
69435;BMP180;56625;54.322;18.582;2022-12-16T03:42:17;100654.60;;;-4.40
69435;BMP180;56625;54.322;18.582;2022-12-16T03:44:46;100656.40;;;-4.40
69435;BMP180;56625;54.322;18.582;2022-12-16T03:47:14;100656.00;;;-4.48
69435;BMP180;56625;54.322;18.582;2022-12-16T03:49:50;100654.40;;;-4.50
69435;BMP180;56625;54.322;18.582;2022-12-16T03:52:18;100665.00;;;-4.60
69435;BMP180;56625;54.322;18.582;2022-12-16T03:54:45;100661.60;;;-4.70
69435;BMP180;56625;54.322;18.582;2022-12-16T03:57:13;100654.40;;;-4.70
69435;BMP180;56625;54.322;18.582;2022-12-16T03:59:42;100653.60;;;-4.70
69435;BMP180;56625;54.322;18.582;2022-12-16T04:02:10;100653.40;;;-4.60
69435;BMP180;56625;54.322;18.582;2022-12-16T04:04:38;100649.40;;;-4.60
69435;BMP180;56625;54.322;18.582;2022-12-16T04:07:06;100650.20;;;-4.48
69435;BMP180;56625;54.322;18.582;2022-12-16T04:09:52;100646.60;;;-4.40
69435;BMP180;56625;54.322;18.582;2022-12-16T04:12:20;100650.40;;;-4.40
69435;BMP180;56625;54.322;18.582;2022-12-16T04:15:07;100648.60;;;-4.38
69435;BMP180;56625;54.322;18.582;2022-12-16T04:17:54;100655.20;;;-4.40
69435;BMP180;56625;54.322;18.582;2022-12-16T04:20:46;100654.40;;;-4.50
69435;BMP180;56625;54.322;18.582;2022-12-16T04:23:36;100658.20;;;-4.40
69435;BMP180;56625;54.322;18.582;2022-12-16T04:26:24;100653.20;;;-4.48
69435;BMP180;56625;54.322;18.582;2022-12-16T04:28:52;100653.40;;;-4.50
69435;BMP180;56625;54.322;18.582;2022-12-16T04:31:20;100651.20;;;-4.50
69435;BMP180;56625;54.322;18.582;2022-12-16T04:33:48;100649.20;;;-4.50
69435;BMP180;56625;54.322;18.582;2022-12-16T04:36:35;100650.60;;;-4.40
69435;BMP180;56625;54.322;18.582;2022-12-16T04:39:21;100657.00;;;-4.30
69435;BMP180;56625;54.322;18.582;2022-12-16T04:42:08;100655.00;;;-4.38
69435;BMP180;56625;54.322;18.582;2022-12-16T04:44:55;100664.60;;;-4.40
69435;BMP180;56625;54.322;18.582;2022-12-16T04:47:41;100665.00;;;-4.50
69435;BMP180;56625;54.322;18.582;2022-12-16T04:50:28;100667.40;;;-4.50
69435;BMP180;56625;54.322;18.582;2022-12-16T04:53:15;100673.40;;;-4.42
69435;BMP180;56625;54.322;18.582;2022-12-16T04:56:02;100679.80;;;-4.40
69435;BMP180;56625;54.322;18.582;2022-12-16T04:58:49;100667.20;;;-4.40
69435;BMP180;56625;54.322;18.582;2022-12-16T05:01:35;100669.60;;;-4.42
69435;BMP180;56625;54.322;18.582;2022-12-16T05:04:22;100666.20;;;-4.40
69435;BMP180;56625;54.322;18.582;2022-12-16T05:07:09;100659.60;;;-4.30
69435;BMP180;56625;54.322;18.582;2022-12-16T05:10:03;100653.40;;;-4.20
69435;BMP180;56625;54.322;18.582;2022-12-16T05:12:53;100654.80;;;-4.20
69435;BMP180;56625;54.322;18.582;2022-12-16T05:15:40;100658.20;;;-4.10
69435;BMP180;56625;54.322;18.582;2022-12-16T05:18:46;100655.20;;;-4.20
69435;BMP180;56625;54.322;18.582;2022-12-16T05:21:33;100656.00;;;-4.20
69435;BMP180;56625;54.322;18.582;2022-12-16T05:24:19;100660.00;;;-4.30
69435;BMP180;56625;54.322;18.582;2022-12-16T05:27:06;100669.00;;;-4.30
69435;BMP180;56625;54.322;18.582;2022-12-16T05:29:52;100670.20;;;-4.30
69435;BMP180;56625;54.322;18.582;2022-12-16T05:32:39;100672.60;;;-4.30
69435;BMP180;56625;54.322;18.582;2022-12-16T05:35:26;100668.40;;;-4.30
69435;BMP180;56625;54.322;18.582;2022-12-16T05:38:12;100664.80;;;-4.18
69435;BMP180;56625;54.322;18.582;2022-12-16T05:40:59;100667.80;;;-4.10
69435;BMP180;56625;54.322;18.582;2022-12-16T05:43:46;100669.80;;;-4.00
69435;BMP180;56625;54.322;18.582;2022-12-16T05:46:32;100673.00;;;-4.00
69435;BMP180;56625;54.322;18.582;2022-12-16T05:49:19;100681.80;;;-4.10
69435;BMP180;56625;54.322;18.582;2022-12-16T05:52:06;100688.80;;;-4.10
69435;BMP180;56625;54.322;18.582;2022-12-16T05:54:53;100692.60;;;-4.20
69435;BMP180;56625;54.322;18.582;2022-12-16T05:57:39;100683.60;;;-4.20
69435;BMP180;56625;54.322;18.582;2022-12-16T06:00:26;100689.20;;;-4.20
69435;BMP180;56625;54.322;18.582;2022-12-16T06:03:13;100679.20;;;-4.20
69435;BMP180;56625;54.322;18.582;2022-12-16T06:06:00;100689.60;;;-4.20
69435;BMP180;56625;54.322;18.582;2022-12-16T06:08:46;100693.00;;;-4.20
69435;BMP180;56625;54.322;18.582;2022-12-16T06:11:33;100693.80;;;-4.20
69435;BMP180;56625;54.322;18.582;2022-12-16T06:14:19;100692.60;;;-4.20
69435;BMP180;56625;54.322;18.582;2022-12-16T06:17:06;100697.40;;;-4.20
69435;BMP180;56625;54.322;18.582;2022-12-16T06:19:52;100700.00;;;-4.18
69435;BMP180;56625;54.322;18.582;2022-12-16T06:22:39;100708.00;;;-4.12
69435;BMP180;56625;54.322;18.582;2022-12-16T06:25:26;100705.00;;;-4.14
69435;BMP180;56625;54.322;18.582;2022-12-16T06:28:13;100713.20;;;-4.20
69435;BMP180;56625;54.322;18.582;2022-12-16T06:30:59;100720.60;;;-4.30
69435;BMP180;56625;54.322;18.582;2022-12-16T06:33:45;100721.60;;;-4.34
69435;BMP180;56625;54.322;18.582;2022-12-16T06:36:32;100730.80;;;-4.30
69435;BMP180;56625;54.322;18.582;2022-12-16T06:39:18;100731.60;;;-4.20
69435;BMP180;56625;54.322;18.582;2022-12-16T06:42:05;100736.80;;;-4.20
69435;BMP180;56625;54.322;18.582;2022-12-16T06:44:51;100734.20;;;-4.30
69435;BMP180;56625;54.322;18.582;2022-12-16T06:47:39;100735.00;;;-4.30
69435;BMP180;56625;54.322;18.582;2022-12-16T06:50:26;100735.80;;;-4.30
69435;BMP180;56625;54.322;18.582;2022-12-16T06:53:13;100736.60;;;-4.30
69435;BMP180;56625;54.322;18.582;2022-12-16T06:56:00;100736.20;;;-4.22
69435;BMP180;56625;54.322;18.582;2022-12-16T06:58:47;100742.20;;;-4.24
69435;BMP180;56625;54.322;18.582;2022-12-16T07:01:34;100749.20;;;-4.24
69435;BMP180;56625;54.322;18.582;2022-12-16T07:04:21;100756.20;;;-4.20
69435;BMP180;56625;54.322;18.582;2022-12-16T07:07:08;100765.20;;;-4.30
69435;BMP180;56625;54.322;18.582;2022-12-16T07:09:54;100766.80;;;-4.30
69435;BMP180;56625;54.322;18.582;2022-12-16T07:12:41;100776.80;;;-4.30
69435;BMP180;56625;54.322;18.582;2022-12-16T07:15:27;100783.80;;;-4.28
69435;BMP180;56625;54.322;18.582;2022-12-16T07:18:14;100790.60;;;-4.30
69435;BMP180;56625;54.322;18.582;2022-12-16T07:21:00;100793.80;;;-4.30
69435;BMP180;56625;54.322;18.582;2022-12-16T07:23:47;100796.80;;;-4.22
69435;BMP180;56625;54.322;18.582;2022-12-16T07:26:33;100792.80;;;-4.22
69435;BMP180;56625;54.322;18.582;2022-12-16T07:29:20;100792.20;;;-4.10
69435;BMP180;56625;54.322;18.582;2022-12-16T07:32:06;100796.80;;;-4.06
69435;BMP180;56625;54.322;18.582;2022-12-16T07:34:53;100798.80;;;-4.10
69435;BMP180;56625;54.322;18.582;2022-12-16T07:37:39;100805.00;;;-4.10
69435;BMP180;56625;54.322;18.582;2022-12-16T07:40:26;100804.00;;;-4.10
69435;BMP180;56625;54.322;18.582;2022-12-16T07:43:13;100806.20;;;-4.00
69435;BMP180;56625;54.322;18.582;2022-12-16T07:46:00;100796.40;;;-4.00
69435;BMP180;56625;54.322;18.582;2022-12-16T07:48:46;100800.00;;;-3.90
69435;BMP180;56625;54.322;18.582;2022-12-16T07:51:32;100797.20;;;-3.80
69435;BMP180;56625;54.322;18.582;2022-12-16T07:54:19;100800.40;;;-3.80
69435;BMP180;56625;54.322;18.582;2022-12-16T07:57:05;100803.60;;;-3.80
69435;BMP180;56625;54.322;18.582;2022-12-16T07:59:52;100815.40;;;-3.90
69435;BMP180;56625;54.322;18.582;2022-12-16T08:02:39;100819.60;;;-3.90
69435;BMP180;56625;54.322;18.582;2022-12-16T08:05:26;100826.40;;;-4.00
69435;BMP180;56625;54.322;18.582;2022-12-16T08:08:12;100824.80;;;-3.90
69435;BMP180;56625;54.322;18.582;2022-12-16T08:10:59;100821.40;;;-3.80
69435;BMP180;56625;54.322;18.582;2022-12-16T08:13:45;100823.20;;;-3.90
69435;BMP180;56625;54.322;18.582;2022-12-16T08:16:32;100829.20;;;-3.90
69435;BMP180;56625;54.322;18.582;2022-12-16T08:19:19;100831.80;;;-4.00
69435;BMP180;56625;54.322;18.582;2022-12-16T08:22:07;100841.60;;;-4.20
69435;BMP180;56625;54.322;18.582;2022-12-16T08:24:54;100849.00;;;-4.20
69435;BMP180;56625;54.322;18.582;2022-12-16T08:27:42;100843.40;;;-4.20
69435;BMP180;56625;54.322;18.582;2022-12-16T08:30:28;100847.40;;;-4.10
69435;BMP180;56625;54.322;18.582;2022-12-16T08:33:14;100847.00;;;-4.10
69435;BMP180;56625;54.322;18.582;2022-12-16T08:36:02;100851.60;;;-4.10
69435;BMP180;56625;54.322;18.582;2022-12-16T08:38:48;100850.40;;;-4.10
69435;BMP180;56625;54.322;18.582;2022-12-16T08:41:35;100849.60;;;-4.10
69435;BMP180;56625;54.322;18.582;2022-12-16T08:44:22;100847.40;;;-4.10
69435;BMP180;56625;54.322;18.582;2022-12-16T08:47:08;100851.00;;;-4.10
69435;BMP180;56625;54.322;18.582;2022-12-16T08:49:55;100856.80;;;-4.10
69435;BMP180;56625;54.322;18.582;2022-12-16T08:52:41;100854.00;;;-4.10
69435;BMP180;56625;54.322;18.582;2022-12-16T08:55:28;100848.20;;;-4.10
69435;BMP180;56625;54.322;18.582;2022-12-16T08:58:14;100853.40;;;-4.10
69435;BMP180;56625;54.322;18.582;2022-12-16T09:01:01;100851.60;;;-4.10
69435;BMP180;56625;54.322;18.582;2022-12-16T09:03:48;100846.20;;;-4.00
69435;BMP180;56625;54.322;18.582;2022-12-16T09:06:34;100847.40;;;-4.20
69435;BMP180;56625;54.322;18.582;2022-12-16T09:09:22;100852.00;;;-4.30
69435;BMP180;56625;54.322;18.582;2022-12-16T09:12:08;100857.40;;;-4.30
69435;BMP180;56625;54.322;18.582;2022-12-16T09:14:54;100855.40;;;-4.16
69435;BMP180;56625;54.322;18.582;2022-12-16T09:17:41;100844.00;;;-1.74
69435;BMP180;56625;54.322;18.582;2022-12-16T09:20:27;100835.00;;;-0.94
69435;BMP180;56625;54.322;18.582;2022-12-16T09:23:13;100842.20;;;-1.76
69435;BMP180;56625;54.322;18.582;2022-12-16T09:26:00;100842.60;;;-2.32
69435;BMP180;56625;54.322;18.582;2022-12-16T09:28:47;100834.60;;;-2.80
69435;BMP180;56625;54.322;18.582;2022-12-16T09:31:33;100833.40;;;-3.20
69435;BMP180;56625;54.322;18.582;2022-12-16T09:34:20;100835.40;;;-3.40
69435;BMP180;56625;54.322;18.582;2022-12-16T09:37:06;100839.20;;;-3.50
69435;BMP180;56625;54.322;18.582;2022-12-16T09:39:53;100836.80;;;-3.68
69435;BMP180;56625;54.322;18.582;2022-12-16T09:46:33;100834.80;;;-3.80
69435;BMP180;56625;54.322;18.582;2022-12-16T09:52:23;100821.20;;;-4.06
69435;BMP180;56625;54.322;18.582;2022-12-16T09:58:13;100831.80;;;-4.10
69435;BMP180;56625;54.322;18.582;2022-12-16T10:01:00;100832.20;;;-4.08
69435;BMP180;56625;54.322;18.582;2022-12-16T10:03:47;100830.20;;;-4.00
69435;BMP180;56625;54.322;18.582;2022-12-16T10:06:45;100827.40;;;-3.90
69435;BMP180;56625;54.322;18.582;2022-12-16T10:10:18;100824.00;;;-3.90
69435;BMP180;56625;54.322;18.582;2022-12-16T10:13:30;100826.40;;;-3.80
69435;BMP180;56625;54.322;18.582;2022-12-16T10:16:44;100830.00;;;-3.70
69435;BMP180;56625;54.322;18.582;2022-12-16T10:19:54;100833.20;;;-3.70
69435;BMP180;56625;54.322;18.582;2022-12-16T10:23:00;100829.40;;;-3.70
69435;BMP180;56625;54.322;18.582;2022-12-16T10:25:55;100829.80;;;-3.70
69435;BMP180;56625;54.322;18.582;2022-12-16T10:28:51;100829.60;;;-3.80
69435;BMP180;56625;54.322;18.582;2022-12-16T10:31:39;100834.20;;;-3.80
69435;BMP180;56625;54.322;18.582;2022-12-16T10:34:31;100832.20;;;-3.84
69435;BMP180;56625;54.322;18.582;2022-12-16T10:37:33;100833.40;;;-3.80
69435;BMP180;56625;54.322;18.582;2022-12-16T10:40:28;100822.40;;;-3.70
69435;BMP180;56625;54.322;18.582;2022-12-16T10:43:42;100823.40;;;-3.70
69435;BMP180;56625;54.322;18.582;2022-12-16T10:46:34;100823.80;;;-3.50
69435;BMP180;56625;54.322;18.582;2022-12-16T10:49:22;100815.80;;;-3.24
69435;BMP180;56625;54.322;18.582;2022-12-16T10:52:11;100813.20;;;-3.10
69435;BMP180;56625;54.322;18.582;2022-12-16T10:55:13;100808.20;;;-3.16
69435;BMP180;56625;54.322;18.582;2022-12-16T10:58:28;100806.80;;;-3.10
69435;BMP180;56625;54.322;18.582;2022-12-16T11:01:26;100799.60;;;-3.00
69435;BMP180;56625;54.322;18.582;2022-12-16T11:04:37;100799.60;;;-2.90
69435;BMP180;56625;54.322;18.582;2022-12-16T11:07:39;100802.60;;;-2.80
69435;BMP180;56625;54.322;18.582;2022-12-16T11:10:41;100804.00;;;-2.70
69435;BMP180;56625;54.322;18.582;2022-12-16T11:13:33;100809.20;;;-2.70
69435;BMP180;56625;54.322;18.582;2022-12-16T11:16:36;100819.00;;;-2.70
69435;BMP180;56625;54.322;18.582;2022-12-16T11:19:25;100817.80;;;-2.80
69435;BMP180;56625;54.322;18.582;2022-12-16T11:22:16;100822.40;;;-2.90
69435;BMP180;56625;54.322;18.582;2022-12-16T11:25:22;100828.20;;;-2.80
69435;BMP180;56625;54.322;18.582;2022-12-16T11:28:16;100819.00;;;-2.90
69435;BMP180;56625;54.322;18.582;2022-12-16T11:31:12;100825.00;;;-2.80
69435;BMP180;56625;54.322;18.582;2022-12-16T11:34:01;100822.40;;;-2.76
69435;BMP180;56625;54.322;18.582;2022-12-16T11:36:50;100821.40;;;-2.70
69435;BMP180;56625;54.322;18.582;2022-12-16T11:39:38;100824.80;;;-2.70
69435;BMP180;56625;54.322;18.582;2022-12-16T11:42:28;100822.40;;;-2.70
69435;BMP180;56625;54.322;18.582;2022-12-16T11:45:20;100814.80;;;-2.80
69435;BMP180;56625;54.322;18.582;2022-12-16T11:48:35;100821.40;;;-2.84
69435;BMP180;56625;54.322;18.582;2022-12-16T11:51:27;100825.80;;;-2.90
69435;BMP180;56625;54.322;18.582;2022-12-16T11:54:28;100829.80;;;-2.90
69435;BMP180;56625;54.322;18.582;2022-12-16T11:57:39;100832.00;;;-3.00
69435;BMP180;56625;54.322;18.582;2022-12-16T12:00:28;100832.80;;;-3.10
69435;BMP180;56625;54.322;18.582;2022-12-16T12:03:23;100839.40;;;-3.12
69435;BMP180;56625;54.322;18.582;2022-12-16T12:06:21;100840.80;;;-3.12
69435;BMP180;56625;54.322;18.582;2022-12-16T12:09:18;100840.00;;;-3.20
69435;BMP180;56625;54.322;18.582;2022-12-16T12:12:30;100843.60;;;-3.20
69435;BMP180;56625;54.322;18.582;2022-12-16T12:15:45;100842.40;;;-3.10
69435;BMP180;56625;54.322;18.582;2022-12-16T12:21:51;100853.60;;;-3.00
69435;BMP180;56625;54.322;18.582;2022-12-16T12:38:37;100843.80;;;-2.90
69435;BMP180;56625;54.322;18.582;2022-12-16T12:48:23;100862.00;;;-2.98
69435;BMP180;56625;54.322;18.582;2022-12-16T12:51:46;100870.00;;;-3.00
69435;BMP180;56625;54.322;18.582;2022-12-16T12:54:50;100869.80;;;-3.00
69435;BMP180;56625;54.322;18.582;2022-12-16T12:57:42;100877.00;;;-3.00
69435;BMP180;56625;54.322;18.582;2022-12-16T13:00:38;100876.80;;;-3.00
69435;BMP180;56625;54.322;18.582;2022-12-16T13:03:55;100880.40;;;-3.00
69435;BMP180;56625;54.322;18.582;2022-12-16T13:06:43;100880.40;;;-3.00
69435;BMP180;56625;54.322;18.582;2022-12-16T13:09:36;100886.40;;;-3.00
69435;BMP180;56625;54.322;18.582;2022-12-16T13:12:32;100887.60;;;-2.90
69435;BMP180;56625;54.322;18.582;2022-12-16T13:15:38;100890.00;;;-2.90
69435;BMP180;56625;54.322;18.582;2022-12-16T13:18:32;100887.20;;;-2.90
69435;BMP180;56625;54.322;18.582;2022-12-16T13:24:48;100886.40;;;-2.80
69435;BMP180;56625;54.322;18.582;2022-12-16T13:27:51;100887.40;;;-2.70
69435;BMP180;56625;54.322;18.582;2022-12-16T13:31:02;100892.40;;;-2.60
69435;BMP180;56625;54.322;18.582;2022-12-16T13:33:54;100895.00;;;-2.70
69435;BMP180;56625;54.322;18.582;2022-12-16T13:36:51;100897.60;;;-2.70
69435;BMP180;56625;54.322;18.582;2022-12-16T13:39:41;100895.40;;;-2.80
69435;BMP180;56625;54.322;18.582;2022-12-16T13:42:53;100893.40;;;-2.80
69435;BMP180;56625;54.322;18.582;2022-12-16T13:45:43;100895.20;;;-2.80
69435;BMP180;56625;54.322;18.582;2022-12-16T13:48:49;100897.00;;;-2.80
69435;BMP180;56625;54.322;18.582;2022-12-16T13:54:40;100895.00;;;-2.68
69435;BMP180;56625;54.322;18.582;2022-12-16T13:57:35;100894.00;;;-2.50
69435;BMP180;56625;54.322;18.582;2022-12-16T14:00:26;100893.40;;;-2.40
69435;BMP180;56625;54.322;18.582;2022-12-16T14:03:40;100892.80;;;-2.40
69435;BMP180;56625;54.322;18.582;2022-12-16T14:06:30;100899.00;;;-2.50
69435;BMP180;56625;54.322;18.582;2022-12-16T14:09:38;100895.00;;;-2.60
69435;BMP180;56625;54.322;18.582;2022-12-16T14:12:45;100901.20;;;-2.60
69435;BMP180;56625;54.322;18.582;2022-12-16T14:22:42;100904.80;;;-2.80
69435;BMP180;56625;54.322;18.582;2022-12-16T14:25:31;100909.60;;;-2.80
69435;BMP180;56625;54.322;18.582;2022-12-16T14:28:34;100917.80;;;-2.70
69435;BMP180;56625;54.322;18.582;2022-12-16T14:31:40;100918.80;;;-2.64
69435;BMP180;56625;54.322;18.582;2022-12-16T14:34:32;100925.40;;;-2.50
69435;BMP180;56625;54.322;18.582;2022-12-16T14:37:33;100928.40;;;-2.50
69435;BMP180;56625;54.322;18.582;2022-12-16T14:40:29;100926.40;;;-2.50
69435;BMP180;56625;54.322;18.582;2022-12-16T14:43:23;100940.20;;;-2.52
69435;BMP180;56625;54.322;18.582;2022-12-16T14:46:30;100938.00;;;-2.60
69435;BMP180;56625;54.322;18.582;2022-12-16T14:49:27;100937.40;;;-2.60
69435;BMP180;56625;54.322;18.582;2022-12-16T14:52:24;100934.20;;;-2.60
69435;BMP180;56625;54.322;18.582;2022-12-16T14:55:34;100935.80;;;-2.50
69435;BMP180;56625;54.322;18.582;2022-12-16T14:58:23;100940.80;;;-2.40
69435;BMP180;56625;54.322;18.582;2022-12-16T15:01:18;100945.80;;;-2.28
69435;BMP180;56625;54.322;18.582;2022-12-16T15:04:24;100942.80;;;-2.10
69435;BMP180;56625;54.322;18.582;2022-12-16T15:07:14;100940.20;;;-2.00
69435;BMP180;56625;54.322;18.582;2022-12-16T15:10:03;100948.20;;;-1.80
69435;BMP180;56625;54.322;18.582;2022-12-16T15:12:49;100946.80;;;-1.70
69435;BMP180;56625;54.322;18.582;2022-12-16T15:15:46;100952.60;;;-1.70
69435;BMP180;56625;54.322;18.582;2022-12-16T15:18:40;100952.00;;;-1.70
69435;BMP180;56625;54.322;18.582;2022-12-16T15:21:28;100955.60;;;-1.70
69435;BMP180;56625;54.322;18.582;2022-12-16T15:24:23;100961.40;;;-1.70
69435;BMP180;56625;54.322;18.582;2022-12-16T15:33:27;100963.60;;;-1.60
69435;BMP180;56625;54.322;18.582;2022-12-16T15:36:33;100977.80;;;-1.60
69435;BMP180;56625;54.322;18.582;2022-12-16T15:39:34;100981.00;;;-1.50
69435;BMP180;56625;54.322;18.582;2022-12-16T15:42:27;100987.40;;;-1.50
69435;BMP180;56625;54.322;18.582;2022-12-16T15:45:23;100988.20;;;-1.50
69435;BMP180;56625;54.322;18.582;2022-12-16T15:48:26;100985.40;;;-1.50
69435;BMP180;56625;54.322;18.582;2022-12-16T15:54:17;100981.60;;;-1.50
69435;BMP180;56625;54.322;18.582;2022-12-16T15:57:31;100993.80;;;-1.50
69435;BMP180;56625;54.322;18.582;2022-12-16T16:00:23;100993.40;;;-1.46
69435;BMP180;56625;54.322;18.582;2022-12-16T16:03:30;100996.40;;;-1.50
69435;BMP180;56625;54.322;18.582;2022-12-16T16:06:23;100997.60;;;-1.50
69435;BMP180;56625;54.322;18.582;2022-12-16T16:09:15;100992.00;;;-1.50
69435;BMP180;56625;54.322;18.582;2022-12-16T16:12:09;100998.00;;;-1.50
69435;BMP180;56625;54.322;18.582;2022-12-16T16:14:56;100998.40;;;-1.52
69435;BMP180;56625;54.322;18.582;2022-12-16T16:17:43;100993.80;;;-1.50
69435;BMP180;56625;54.322;18.582;2022-12-16T16:20:30;100993.80;;;-1.50
69435;BMP180;56625;54.322;18.582;2022-12-16T16:23:17;100998.40;;;-1.50
69435;BMP180;56625;54.322;18.582;2022-12-16T16:26:04;101007.20;;;-1.40
69435;BMP180;56625;54.322;18.582;2022-12-16T16:28:50;101007.60;;;-1.40
69435;BMP180;56625;54.322;18.582;2022-12-16T16:31:37;101010.20;;;-1.36
69435;BMP180;56625;54.322;18.582;2022-12-16T16:34:31;101013.20;;;-1.38
69435;BMP180;56625;54.322;18.582;2022-12-16T16:37:20;101016.60;;;-1.32
69435;BMP180;56625;54.322;18.582;2022-12-16T16:40:35;101019.80;;;-1.30
69435;BMP180;56625;54.322;18.582;2022-12-16T16:43:23;101016.00;;;-1.30
69435;BMP180;56625;54.322;18.582;2022-12-16T16:49:12;101024.40;;;-1.18
69435;BMP180;56625;54.322;18.582;2022-12-16T16:52:01;101023.60;;;-1.10
69435;BMP180;56625;54.322;18.582;2022-12-16T16:54:48;101028.20;;;-1.10